Time;durP1;ratioP1;P1;durP2;ratioP2;P2;SDS_P1;SDS_P2;PMS_P1;PMS_P2;Temp;Humidity;BMP_temperature;BMP_pressure;BME280_temperature;BME280_humidity;BME280_pressure;Samples;Min_cycle;Max_cycle;Signal;HPM_P1;HPM_P2
2021/03/03 00:01:51;;;;;;;28.27;17.58;;;4.20;99.90;;;;;;5075217;28;20196;-75
2021/03/03 00:04:18;;;;;;;24.60;16.80;;;4.20;99.90;;;;;;5074749;28;20168;-75
2021/03/03 00:06:46;;;;;;;23.85;16.48;;;4.10;99.90;;;;;;5073588;28;20207;-74
2021/03/03 00:09:13;;;;;;;23.98;15.70;;;4.20;99.90;;;;;;5073001;28;20204;-74
2021/03/03 00:11:40;;;;;;;22.98;16.00;;;4.20;99.90;;;;;;5073405;28;20184;-76
2021/03/03 00:14:08;;;;;;;30.33;20.90;;;4.10;99.90;;;;;;5072937;28;20192;-76
2021/03/03 00:16:35;;;;;;;37.67;23.92;;;4.00;99.90;;;;;;5055359;28;20239;-75
2021/03/03 00:19:03;;;;;;;28.30;20.98;;;3.90;99.90;;;;;;5073528;28;20188;-75
2021/03/03 00:21:31;;;;;;;39.47;22.73;;;3.70;99.90;;;;;;5073902;28;20562;-76
2021/03/03 00:23:58;;;;;;;39.17;23.73;;;3.70;99.90;;;;;;5073974;28;20176;-76
2021/03/03 00:26:27;;;;;;;30.15;20.90;;;3.50;99.90;;;;;;5073112;28;20212;-75
2021/03/03 00:28:54;;;;;;;35.63;21.02;;;3.40;99.90;;;;;;5074831;28;20176;-74
2021/03/03 00:31:22;;;;;;;52.20;27.73;;;3.40;99.90;;;;;;5074160;28;20188;-74
2021/03/03 00:33:50;;;;;;;28.02;18.00;;;3.40;99.90;;;;;;5074600;28;20172;-75
2021/03/03 00:36:17;;;;;;;37.85;24.65;;;3.40;99.90;;;;;;5074352;28;20696;-75
2021/03/03 00:38:45;;;;;;;20.35;16.63;;;3.50;99.90;;;;;;5074394;28;20192;-76
2021/03/03 00:41:12;;;;;;;25.27;17.52;;;3.80;99.90;;;;;;5056313;28;20181;-75
2021/03/03 00:43:39;;;;;;;31.90;17.17;;;3.90;99.90;;;;;;5073524;28;20253;-75
2021/03/03 00:46:06;;;;;;;32.90;17.60;;;3.80;99.90;;;;;;5073550;28;20239;-75
2021/03/03 00:48:35;;;;;;;21.92;16.20;;;3.90;99.90;;;;;;5067079;28;20188;-75
2021/03/03 00:51:05;;;;;;;24.10;16.13;;;3.90;99.90;;;;;;5035682;28;20232;-75
2021/03/03 00:53:33;;;;;;;26.05;17.63;;;4.20;99.90;;;;;;5035789;28;20197;-75
2021/03/03 00:56:01;;;;;;;35.03;20.27;;;4.50;99.90;;;;;;5053314;28;20262;-76
2021/03/03 00:58:33;;;;;;;23.63;18.30;;;5.10;99.90;;;;;;5053888;28;20171;-75
2021/03/03 01:01:01;;;;;;;34.58;19.13;;;5.30;99.90;;;;;;5036024;28;20195;-75
2021/03/03 01:03:33;;;;;;;34.40;21.20;;;5.60;99.90;;;;;;5035879;28;20235;-75
2021/03/03 01:06:19;;;;;;;32.08;17.90;;;5.30;99.90;;;;;;5055219;28;20291;-74
2021/03/03 01:08:47;;;;;;;29.08;19.40;;;4.90;99.90;;;;;;5037913;28;20189;-74
2021/03/03 01:11:16;;;;;;;31.52;20.20;;;4.50;99.90;;;;;;5037263;28;20200;-75
2021/03/03 01:13:45;;;;;;;68.13;37.33;;;4.20;99.90;;;;;;5036808;28;20620;-73
2021/03/03 01:16:18;;;;;;;51.90;31.38;;;3.90;99.90;;;;;;5035707;28;20271;-75
2021/03/03 01:18:50;;;;;;;69.57;35.35;;;3.50;99.90;;;;;;5052316;28;20173;-74
2021/03/03 01:21:18;;;;;;;37.85;21.08;;;3.20;99.90;;;;;;5052824;28;20274;-74
2021/03/03 01:23:45;;;;;;;51.85;26.77;;;3.00;99.90;;;;;;5034928;28;20197;-75
2021/03/03 01:26:13;;;;;;;39.65;24.23;;;2.90;99.90;;;;;;5051216;28;20262;-75
2021/03/03 01:28:40;;;;;;;40.83;27.83;;;2.90;99.90;;;;;;5052497;28;20633;-75
2021/03/03 01:31:07;;;;;;;28.17;19.00;;;3.00;99.90;;;;;;5052711;28;20597;-75
2021/03/03 01:33:34;;;;;;;26.98;19.83;;;3.20;99.90;;;;;;5034907;28;20193;-75
2021/03/03 01:36:02;;;;;;;36.35;20.75;;;3.50;99.90;;;;;;5052803;28;20212;-74
2021/03/03 01:38:30;;;;;;;31.23;18.58;;;3.70;99.90;;;;;;5053080;28;20204;-75
2021/03/03 01:40:58;;;;;;;24.85;15.85;;;3.60;99.90;;;;;;5052095;28;20185;-75
2021/03/03 01:43:30;;;;;;;32.30;22.50;;;3.50;99.90;;;;;;5065162;22;20235;-80
2021/03/03 01:45:57;;;;;;;29.35;20.63;;;3.40;99.90;;;;;;5102748;28;20199;-78
2021/03/03 01:48:24;;;;;;;27.80;17.60;;;3.30;99.90;;;;;;5096436;28;20187;-80
2021/03/03 01:50:52;;;;;;;37.55;20.45;;;3.40;99.90;;;;;;5096631;28;20278;-80
2021/03/03 01:53:20;;;;;;;38.78;23.17;;;3.30;99.90;;;;;;5096702;28;20193;-80
2021/03/03 01:55:48;;;;;;;40.28;22.73;;;3.20;99.90;;;;;;5097473;28;20173;-79
2021/03/03 01:58:16;;;;;;;31.52;20.17;;;3.10;99.90;;;;;;5095164;28;20191;-79
2021/03/03 02:00:43;;;;;;;36.55;19.05;;;3.00;99.90;;;;;;5081235;28;20176;-81
2021/03/03 02:03:12;;;;;;;24.08;19.35;;;3.00;99.90;;;;;;5079084;28;20243;-81
2021/03/03 02:05:39;;;;;;;21.85;16.50;;;2.90;99.90;;;;;;5080846;28;20188;-80
2021/03/03 02:08:11;;;;;;;22.95;17.20;;;2.90;99.90;;;;;;5078983;28;20192;-82
2021/03/03 02:10:44;;;;;;;23.33;17.45;;;2.80;99.90;;;;;;5077744;28;20223;-81
2021/03/03 02:13:20;;;;;;;24.38;16.67;;;2.60;99.90;;;;;;5078810;28;20208;-82
2021/03/03 02:15:49;;;;;;;27.92;16.15;;;2.40;99.90;;;;;;5080610;28;20187;-81
2021/03/03 02:18:18;;;;;;;34.45;17.75;;;2.50;99.90;;;;;;5082056;28;20733;-82
2021/03/03 02:20:56;;;;;;;27.90;17.25;;;2.40;99.90;;;;;;5079809;28;20204;-81
2021/03/03 02:23:35;;;;;;;27.25;16.27;;;2.60;99.90;;;;;;5080206;28;20207;-83
2021/03/03 02:26:04;;;;;;;25.70;15.30;;;2.80;99.90;;;;;;5079962;28;20650;-82
2021/03/03 02:28:33;;;;;;;30.88;20.08;;;2.80;99.90;;;;;;5079562;28;20192;-81
2021/03/03 02:31:00;;;;;;;31.33;18.35;;;2.90;99.90;;;;;;5079300;28;20211;-82
2021/03/03 02:33:28;;;;;;;29.08;17.50;;;2.90;99.90;;;;;;5080564;28;20306;-81
2021/03/03 02:35:56;;;;;;;28.98;16.17;;;3.00;99.90;;;;;;5087289;28;20194;-79
2021/03/03 02:38:24;;;;;;;35.92;14.52;;;3.10;99.90;;;;;;5095326;28;20192;-81
2021/03/03 02:40:52;;;;;;;29.23;17.17;;;3.10;99.90;;;;;;5096453;28;20263;-79
2021/03/03 02:43:21;;;;;;;25.98;15.10;;;3.10;99.90;;;;;;5097059;28;20215;-81
2021/03/03 02:45:49;;;;;;;23.05;13.70;;;3.00;99.90;;;;;;5096360;28;20184;-81
2021/03/03 02:48:17;;;;;;;27.17;16.17;;;2.90;99.90;;;;;;5088320;28;20195;-79
2021/03/03 02:50:44;;;;;;;27.90;16.20;;;2.80;99.90;;;;;;5082231;28;20203;-80
2021/03/03 02:53:13;;;;;;;16.30;12.85;;;2.70;99.90;;;;;;5082248;28;20316;-82
2021/03/03 02:55:40;;;;;;;25.25;15.02;;;2.60;99.90;;;;;;5083105;28;20200;-81
2021/03/03 02:58:08;;;;;;;22.05;12.60;;;2.40;99.90;;;;;;5083196;28;20192;-82
2021/03/03 03:00:38;;;;;;;23.40;13.60;;;2.20;99.90;;;;;;5091745;28;20190;-79
2021/03/03 03:03:18;;;;;;;23.60;15.05;;;2.30;99.90;;;;;;5095249;28;20216;-79
2021/03/03 03:05:49;;;;;;;26.00;14.73;;;2.20;99.90;;;;;;5087562;28;20180;-81
2021/03/03 03:08:19;;;;;;;27.52;13.35;;;2.20;99.90;;;;;;5080727;28;20294;-81
2021/03/03 03:10:47;;;;;;;28.20;16.15;;;2.40;99.90;;;;;;5080474;28;20269;-80
2021/03/03 03:13:18;;;;;;;27.95;15.23;;;2.50;99.90;;;;;;5081228;28;20247;-80
2021/03/03 03:15:49;;;;;;;21.15;14.85;;;2.60;99.90;;;;;;5081812;28;20210;-81
2021/03/03 03:18:22;;;;;;;27.85;15.93;;;2.80;99.90;;;;;;5079932;28;20276;-80
2021/03/03 03:20:51;;;;;;;20.08;13.27;;;2.80;99.90;;;;;;5078925;28;20253;-80
2021/03/03 03:23:21;;;;;;;24.25;13.15;;;2.70;99.90;;;;;;5079267;28;20227;-81
2021/03/03 03:25:50;;;;;;;22.08;15.00;;;2.60;99.90;;;;;;5078938;28;20270;-81
2021/03/03 03:28:19;;;;;;;27.60;14.52;;;2.60;99.90;;;;;;5079486;28;20192;-82
2021/03/03 03:30:47;;;;;;;21.73;14.60;;;2.60;99.90;;;;;;5084101;28;20210;-81
2021/03/03 03:33:16;;;;;;;22.15;12.45;;;2.50;99.90;;;;;;5081084;28;20246;-81
2021/03/03 03:35:43;;;;;;;27.08;13.75;;;2.60;99.90;;;;;;5079393;28;20192;-80
2021/03/03 03:38:11;;;;;;;22.60;13.90;;;2.80;99.90;;;;;;5078865;28;20742;-81
2021/03/03 03:40:39;;;;;;;29.83;13.75;;;2.60;99.90;;;;;;5081173;28;20283;-80
2021/03/03 03:43:09;;;;;;;25.48;11.80;;;2.70;99.90;;;;;;5082097;28;20235;-81
2021/03/03 03:45:37;;;;;;;21.67;14.95;;;2.60;99.90;;;;;;5081963;28;20650;-80
2021/03/03 03:48:07;;;;;;;23.30;13.75;;;2.70;99.90;;;;;;5081249;28;20522;-80
2021/03/03 03:50:35;;;;;;;26.73;13.15;;;2.70;99.90;;;;;;5081885;28;20276;-82
2021/03/03 03:53:03;;;;;;;27.60;14.35;;;2.80;99.90;;;;;;5082959;28;20220;-84
2021/03/03 03:55:32;;;;;;;20.90;15.10;;;3.20;99.90;;;;;;5083459;28;20603;-81
2021/03/03 03:58:00;;;;;;;31.60;14.95;;;3.60;99.90;;;;;;5084024;28;20193;-83
2021/03/03 04:00:29;;;;;;;29.17;15.82;;;3.40;99.90;;;;;;5083339;28;20250;-83
2021/03/03 04:02:57;;;;;;;23.10;12.50;;;3.30;99.90;;;;;;5088732;28;20204;-81
2021/03/03 04:05:29;;;;;;;20.08;15.40;;;3.20;99.90;;;;;;5092201;28;20184;-80
2021/03/03 04:07:58;;;;;;;20.08;13.00;;;3.10;99.90;;;;;;5092186;28;20192;-81
2021/03/03 04:10:28;;;;;;;23.98;14.57;;;3.10;99.90;;;;;;5087750;28;20212;-80
2021/03/03 04:12:56;;;;;;;22.40;14.00;;;3.10;99.90;;;;;;5084438;28;20698;-80
2021/03/03 04:15:24;;;;;;;24.25;14.40;;;3.00;99.90;;;;;;5085160;28;20286;-81
2021/03/03 04:17:52;;;;;;;16.80;11.25;;;2.90;99.90;;;;;;5082952;28;20177;-82
2021/03/03 04:20:20;;;;;;;23.90;11.77;;;2.90;99.90;;;;;;5088843;28;20169;-79
2021/03/03 04:22:49;;;;;;;23.48;13.05;;;2.90;99.90;;;;;;5094376;28;20218;-80
2021/03/03 04:25:18;;;;;;;27.63;15.32;;;2.90;99.90;;;;;;5092496;28;20674;-80
2021/03/03 04:27:45;;;;;;;18.80;13.38;;;3.00;99.90;;;;;;5091658;28;20192;-80
2021/03/03 04:30:16;;;;;;;26.13;12.85;;;3.00;99.90;;;;;;5083450;28;20212;-81
2021/03/03 04:32:53;;;;;;;23.08;15.02;;;3.00;99.90;;;;;;5086071;28;20235;-81
2021/03/03 04:35:21;;;;;;;23.77;12.52;;;3.00;99.90;;;;;;5090008;28;20191;-80
2021/03/03 04:37:49;;;;;;;26.42;13.32;;;3.20;99.90;;;;;;5086832;28;20762;-81
2021/03/03 04:40:17;;;;;;;19.77;10.88;;;3.30;99.90;;;;;;5087328;28;20268;-82
2021/03/03 04:42:45;;;;;;;18.83;13.43;;;3.50;99.90;;;;;;5091107;28;20212;-82
2021/03/03 04:45:13;;;;;;;19.67;13.63;;;3.40;99.90;;;;;;5088297;28;20191;-82
2021/03/03 04:47:41;;;;;;;21.67;13.48;;;3.50;99.90;;;;;;5090819;28;20687;-82
2021/03/03 04:50:09;;;;;;;29.42;14.35;;;3.30;99.90;;;;;;5089056;28;20204;-80
2021/03/03 04:52:38;;;;;;;15.73;10.50;;;3.20;99.90;;;;;;5090703;28;20211;-82
2021/03/03 04:55:07;;;;;;;22.88;11.98;;;3.30;99.90;;;;;;5086043;28;20195;-80
2021/03/03 04:57:34;;;;;;;26.45;13.30;;;3.60;99.90;;;;;;5090492;28;20268;-79
2021/03/03 05:00:03;;;;;;;17.85;12.30;;;3.70;99.90;;;;;;5091057;28;20192;-79
2021/03/03 05:02:31;;;;;;;19.08;11.45;;;3.70;99.90;;;;;;5091065;28;20220;-80
2021/03/03 05:04:58;;;;;;;15.88;11.60;;;3.90;99.90;;;;;;5086178;28;20562;-81
2021/03/03 05:07:25;;;;;;;17.63;10.77;;;3.80;99.90;;;;;;5081613;28;20187;-81
2021/03/03 05:09:52;;;;;;;18.95;11.63;;;3.60;99.90;;;;;;5086873;28;20196;-79
2021/03/03 05:12:20;;;;;;;17.13;10.82;;;3.60;99.90;;;;;;5092412;28;20196;-80
2021/03/03 05:14:48;;;;;;;22.38;11.25;;;3.70;99.90;;;;;;5089821;28;20279;-81
2021/03/03 05:17:15;;;;;;;21.65;9.35;;;3.60;99.90;;;;;;5084350;28;20211;-82
2021/03/03 05:19:46;;;;;;;30.05;14.00;;;3.70;99.90;;;;;;5085025;28;20180;-81
2021/03/03 05:22:13;;;;;;;17.33;12.23;;;3.60;99.90;;;;;;5083995;28;20299;-81
2021/03/03 05:24:41;;;;;;;23.27;15.07;;;3.40;99.90;;;;;;5079462;28;20196;-82
2021/03/03 05:27:08;;;;;;;19.23;12.57;;;3.40;99.90;;;;;;5079129;28;20200;-81
2021/03/03 05:29:36;;;;;;;22.08;14.13;;;3.80;99.90;;;;;;5079375;28;20196;-82
2021/03/03 05:32:04;;;;;;;23.05;13.68;;;3.90;99.90;;;;;;5079678;28;20196;-82
2021/03/03 05:34:31;;;;;;;26.33;14.00;;;3.90;99.90;;;;;;5078415;28;20223;-82
2021/03/03 05:36:59;;;;;;;21.77;12.85;;;3.90;99.90;;;;;;5080606;28;20196;-81
2021/03/03 05:39:26;;;;;;;23.25;13.35;;;3.70;99.90;;;;;;5079853;28;20172;-81
2021/03/03 05:41:53;;;;;;;21.55;11.90;;;3.70;99.90;;;;;;5079095;28;20830;-82
2021/03/03 05:44:21;;;;;;;21.92;13.02;;;3.70;99.90;;;;;;5078141;28;20288;-82
2021/03/03 05:46:50;;;;;;;21.13;13.43;;;3.50;99.90;;;;;;5077977;28;20211;-82
2021/03/03 05:49:19;;;;;;;23.58;12.95;;;3.50;99.90;;;;;;5077484;28;20563;-82
2021/03/03 05:51:47;;;;;;;31.52;13.82;;;3.70;99.90;;;;;;5078588;28;20223;-83
2021/03/03 05:54:16;;;;;;;30.70;13.35;;;4.10;99.90;;;;;;5078508;28;20220;-81
2021/03/03 05:56:44;;;;;;;21.33;11.20;;;4.30;99.90;;;;;;5079660;28;20631;-81
2021/03/03 05:59:11;;;;;;;22.40;13.73;;;4.30;99.90;;;;;;5080545;28;20226;-82
2021/03/03 06:01:40;;;;;;;15.77;10.05;;;4.30;99.90;;;;;;5079947;28;20195;-82
2021/03/03 06:04:21;;;;;;;23.73;14.70;;;4.20;99.90;;;;;;5078952;28;20323;-81
2021/03/03 06:06:49;;;;;;;19.25;11.05;;;3.90;99.90;;;;;;5078148;28;20206;-80
2021/03/03 06:09:18;;;;;;;19.48;11.52;;;3.70;99.90;;;;;;5080084;28;20177;-82
2021/03/03 06:11:46;;;;;;;21.17;14.70;;;3.90;99.90;;;;;;5078330;28;20290;-82
2021/03/03 06:14:13;;;;;;;16.48;11.70;;;3.90;99.90;;;;;;5081142;28;20290;-84
2021/03/03 06:16:40;;;;;;;24.65;14.93;;;4.00;99.90;;;;;;5079173;28;20188;-83
2021/03/03 06:19:08;;;;;;;21.00;12.30;;;4.30;99.90;;;;;;5078731;28;20696;-81
2021/03/03 06:21:36;;;;;;;20.10;13.32;;;4.50;99.90;;;;;;5080045;28;20195;-82
2021/03/03 06:24:06;;;;;;;17.60;11.88;;;4.30;99.90;;;;;;5078937;28;20235;-81
2021/03/03 06:26:34;;;;;;;17.88;13.45;;;4.00;99.90;;;;;;5078125;28;20192;-81
2021/03/03 06:29:12;;;;;;;23.92;12.85;;;3.80;99.90;;;;;;5079103;28;20236;-81
2021/03/03 06:31:39;;;;;;;23.05;14.20;;;3.60;99.90;;;;;;5079943;28;20196;-81
2021/03/03 06:34:12;;;;;;;18.75;12.05;;;3.50;99.90;;;;;;5081988;28;20243;-81
2021/03/03 06:36:43;;;;;;;24.70;14.40;;;3.40;99.90;;;;;;5091678;28;20195;-80
2021/03/03 06:39:22;;;;;;;18.42;15.40;;;3.30;99.90;;;;;;5082657;28;20290;-81
2021/03/03 06:41:51;;;;;;;22.50;16.15;;;3.10;99.90;;;;;;5079343;28;20672;-82
2021/03/03 06:44:19;;;;;;;22.17;12.52;;;3.10;99.90;;;;;;5080589;28;20207;-81
2021/03/03 06:47:02;;;;;;;18.25;13.50;;;3.10;99.90;;;;;;5081108;28;20179;-82
2021/03/03 06:49:29;;;;;;;30.23;14.25;;;3.20;99.90;;;;;;5079971;28;20208;-80
2021/03/03 06:51:58;;;;;;;22.23;14.23;;;3.20;99.90;;;;;;5079963;28;20215;-82
2021/03/03 06:54:26;;;;;;;27.67;14.02;;;3.20;99.90;;;;;;5081008;28;20212;-83
2021/03/03 06:56:54;;;;;;;16.40;13.07;;;3.30;99.90;;;;;;5080843;28;20242;-81
2021/03/03 06:59:23;;;;;;;19.38;13.05;;;3.40;99.90;;;;;;5079995;28;20181;-80
2021/03/03 07:01:52;;;;;;;21.50;12.95;;;3.40;99.90;;;;;;5080347;28;20168;-82
2021/03/03 07:04:26;;;;;;;19.95;13.10;;;3.40;99.90;;;;;;5080605;28;20214;-82
2021/03/03 07:06:55;;;;;;;22.20;14.77;;;3.50;99.90;;;;;;5080069;28;20670;-81
2021/03/03 07:09:29;;;;;;;21.83;14.10;;;3.50;99.90;;;;;;5079663;28;20639;-81
2021/03/03 07:12:04;;;;;;;22.13;15.57;;;3.60;99.90;;;;;;5079261;28;20235;-81
2021/03/03 07:14:31;;;;;;;24.15;13.98;;;3.70;99.90;;;;;;5078742;28;20261;-81
2021/03/03 07:17:10;;;;;;;27.00;14.43;;;3.70;99.90;;;;;;5079530;28;20585;-82
2021/03/03 07:19:40;;;;;;;21.33;14.20;;;3.70;99.90;;;;;;5080254;28;20549;-81
2021/03/03 07:22:24;;;;;;;25.45;12.82;;;3.80;99.90;;;;;;5085721;28;20204;-82
2021/03/03 07:24:53;;;;;;;25.85;16.60;;;3.80;99.90;;;;;;5085973;28;20192;-81
2021/03/03 07:27:21;;;;;;;17.83;13.18;;;4.00;99.90;;;;;;5087029;28;20211;-81
2021/03/03 07:29:50;;;;;;;22.25;15.25;;;4.10;99.90;;;;;;5092970;28;20185;-80
2021/03/03 07:32:19;;;;;;;23.15;15.05;;;4.20;99.90;;;;;;5091643;28;20222;-80
2021/03/03 07:34:48;;;;;;;25.83;16.60;;;4.30;99.90;;;;;;5092629;28;20263;-80
2021/03/03 07:37:17;;;;;;;20.05;14.43;;;4.40;99.90;;;;;;5087785;28;20206;-81
2021/03/03 07:39:49;;;;;;;30.80;15.15;;;4.50;99.90;;;;;;5085914;28;20214;-79
2021/03/03 07:42:21;;;;;;;21.48;14.82;;;4.60;99.90;;;;;;5086163;28;20219;-81
2021/03/03 07:44:49;;;;;;;28.33;15.70;;;4.70;99.90;;;;;;5125693;22;20961;-76
2021/03/03 07:47:17;;;;;;;28.08;15.45;;;4.80;99.90;;;;;;5105625;28;20187;-76
2021/03/03 07:49:47;;;;;;;30.40;14.15;;;4.90;99.90;;;;;;5103828;28;20176;-76
2021/03/03 07:52:19;;;;;;;22.02;15.73;;;5.00;99.90;;;;;;5096228;28;20212;-78
2021/03/03 07:54:46;;;;;;;30.05;15.70;;;5.10;99.90;;;;;;5078815;28;20278;-77
2021/03/03 07:57:15;;;;;;;20.50;14.15;;;5.20;99.90;;;;;;5078803;28;20196;-77
2021/03/03 07:59:44;;;;;;;23.75;15.55;;;5.30;99.90;;;;;;5078214;28;20180;-77
2021/03/03 08:02:12;;;;;;;26.95;16.92;;;5.40;99.90;;;;;;5078773;28;20207;-78
2021/03/03 08:04:41;;;;;;;20.38;15.00;;;5.50;99.90;;;;;;5092082;28;20219;-77
2021/03/03 08:07:22;;;;;;;35.97;18.67;;;5.50;99.90;;;;;;5095148;28;20180;-77
2021/03/03 08:10:20;;;;;;;24.20;14.57;;;5.60;99.90;;;;;;5093411;28;20177;-77
2021/03/03 08:12:59;;;;;;;30.35;15.73;;;5.70;99.90;;;;;;5061853;28;20204;-76
2021/03/03 08:15:38;;;;;;;23.52;15.82;;;5.90;99.90;;;;;;5096014;28;20172;-78
2021/03/03 08:18:27;;;;;;;25.50;16.58;;;6.00;99.90;;;;;;5095058;28;20235;-76
2021/03/03 08:20:56;;;;;;;22.58;15.52;;;6.10;99.90;;;;;;5094619;28;20210;-77
2021/03/03 08:23:52;;;;;;;26.25;15.70;;;6.30;99.90;;;;;;5096323;28;20268;-77
2021/03/03 08:26:36;;;;;;;26.23;18.23;;;6.40;99.90;;;;;;5082313;28;20264;-77
2021/03/03 08:29:35;;;;;;;39.20;19.92;;;6.50;99.90;;;;;;5095396;28;20179;-78
2021/03/03 08:32:22;;;;;;;27.58;17.75;;;6.70;99.90;;;;;;5047715;28;20710;-77
2021/03/03 08:34:54;;;;;;;22.13;17.55;;;6.70;99.90;;;;;;5076838;28;20203;-77
2021/03/03 08:37:33;;;;;;;29.45;17.15;;;6.80;99.90;;;;;;5074835;28;20614;-78
2021/03/03 08:40:03;;;;;;;31.42;16.58;;;6.90;99.90;;;;;;5076206;28;20203;-77
2021/03/03 08:42:36;;;;;;;34.65;17.80;;;6.90;99.90;;;;;;5078311;28;20275;-77
2021/03/03 08:45:15;;;;;;;27.05;18.80;;;6.90;99.90;;;;;;5095424;28;20293;-77
2021/03/03 08:47:52;;;;;;;30.55;17.83;;;7.00;99.90;;;;;;5076088;28;20199;-77
2021/03/03 08:50:38;;;;;;;35.33;17.42;;;7.00;99.90;;;;;;5094807;28;20207;-77
2021/03/03 08:53:28;;;;;;;32.10;18.08;;;7.10;99.90;;;;;;5096598;28;20289;-77
2021/03/03 08:55:57;;;;;;;30.55;17.30;;;7.30;99.90;;;;;;5095771;28;20179;-77
2021/03/03 08:58:51;;;;;;;24.90;15.25;;;7.40;99.90;;;;;;5085416;28;20218;-78
2021/03/03 09:01:20;;;;;;;32.03;16.85;;;7.50;99.90;;;;;;5075274;28;20171;-77
2021/03/03 09:03:53;;;;;;;30.55;16.33;;;7.70;99.90;;;;;;5075165;28;20609;-78
2021/03/03 09:06:36;;;;;;;34.28;16.13;;;7.90;99.90;;;;;;5074663;28;20205;-77
2021/03/03 09:09:04;;;;;;;21.50;14.38;;;8.00;99.90;;;;;;5075825;28;20714;-77
2021/03/03 09:11:31;;;;;;;30.52;17.27;;;8.00;99.90;;;;;;5074180;28;20199;-78
2021/03/03 09:13:59;;;;;;;24.98;17.55;;;8.30;99.90;;;;;;5074912;28;20204;-78
2021/03/03 09:16:26;;;;;;;21.00;15.57;;;8.40;99.90;;;;;;5072900;28;20207;-79
2021/03/03 09:19:06;;;;;;;26.08;17.05;;;8.50;99.90;;;;;;5074572;28;20220;-77
2021/03/03 09:21:33;;;;;;;31.63;19.02;;;8.70;99.90;;;;;;5074183;28;20200;-77
2021/03/03 09:24:11;;;;;;;24.77;17.65;;;8.80;99.90;;;;;;5073342;28;20315;-76
2021/03/03 09:26:40;;;;;;;24.70;16.10;;;8.90;99.90;;;;;;5074532;28;20254;-78
2021/03/03 09:29:07;;;;;;;29.42;16.88;;;8.90;99.90;;;;;;5074516;28;20179;-77
2021/03/03 09:31:36;;;;;;;29.15;15.85;;;9.00;99.90;;;;;;5074021;28;20199;-78
2021/03/03 09:34:07;;;;;;;24.95;16.90;;;9.00;99.90;;;;;;5074667;28;20215;-78
2021/03/03 09:36:56;;;;;;;23.55;15.88;;;9.20;99.90;;;;;;5074337;28;20188;-78
2021/03/03 09:39:24;;;;;;;21.25;16.30;;;9.30;99.90;;;;;;5073821;28;20212;-78
2021/03/03 09:41:56;;;;;;;27.70;18.77;;;9.40;99.90;;;;;;5074243;28;20263;-77
2021/03/03 09:44:25;;;;;;;25.13;16.92;;;9.50;99.90;;;;;;5073320;28;20238;-77
2021/03/03 09:46:53;;;;;;;25.13;14.68;;;9.40;99.90;;;;;;5073367;28;20233;-77
2021/03/03 09:49:23;;;;;;;25.58;18.67;;;9.50;99.90;;;;;;5074077;28;20237;-78
2021/03/03 09:51:51;;;;;;;29.88;16.75;;;9.70;99.90;;;;;;5074133;28;20200;-77
2021/03/03 09:54:28;;;;;;;23.52;14.73;;;9.70;99.90;;;;;;5076976;28;20203;-77
2021/03/03 09:57:19;;;;;;;34.30;18.43;;;9.80;99.90;;;;;;5075673;28;20179;-78
2021/03/03 09:59:49;;;;;;;27.92;16.40;;;9.90;99.90;;;;;;5074196;28;20420;-78
2021/03/03 10:02:18;;;;;;;25.52;15.68;;;9.90;99.90;;;;;;5075802;28;20188;-77
2021/03/03 10:04:47;;;;;;;26.50;17.63;;;10.00;99.90;;;;;;5074791;28;20216;-78
2021/03/03 10:07:22;;;;;;;23.40;14.93;;;10.10;99.90;;;;;;5075330;28;20218;-78
2021/03/03 10:09:52;;;;;;;26.77;16.25;;;10.10;99.90;;;;;;5074401;28;20644;-77
2021/03/03 10:12:21;;;;;;;27.90;16.27;;;10.10;99.90;;;;;;5074129;28;20195;-77
2021/03/03 10:15:00;;;;;;;23.98;14.57;;;10.10;99.90;;;;;;5075107;28;20752;-78
2021/03/03 10:17:41;;;;;;;22.80;15.27;;;10.20;99.90;;;;;;5077693;28;20558;-78
2021/03/03 10:20:33;;;;;;;23.60;14.43;;;10.40;99.90;;;;;;5074891;28;20397;-77
2021/03/03 10:23:08;;;;;;;32.23;14.40;;;10.60;99.90;;;;;;5075787;28;20446;-77
2021/03/03 10:25:38;;;;;;;26.67;14.73;;;10.80;99.90;;;;;;5075551;28;20430;-77
2021/03/03 10:28:09;;;;;;;30.60;16.40;;;11.00;99.90;;;;;;5076411;28;20418;-77
2021/03/03 10:30:39;;;;;;;21.67;14.50;;;11.10;99.90;;;;;;5089026;28;20407;-78
2021/03/03 10:33:07;;;;;;;20.87;14.47;;;11.30;99.90;;;;;;5088262;28;20483;-78
2021/03/03 10:35:46;;;;;;;21.30;14.30;;;11.40;99.90;;;;;;5085253;28;20431;-77
2021/03/03 10:38:16;;;;;;;21.00;15.00;;;11.30;99.90;;;;;;5090395;28;20413;-77
2021/03/03 10:40:44;;;;;;;20.50;13.13;;;11.30;99.90;;;;;;5089389;28;20426;-77
2021/03/03 10:43:13;;;;;;;19.40;12.63;;;11.30;99.90;;;;;;5082555;28;20416;-79
2021/03/03 10:45:43;;;;;;;22.53;15.20;;;11.40;99.90;;;;;;5095133;28;20418;-77
2021/03/03 10:48:26;;;;;;;19.67;12.87;;;11.40;99.90;;;;;;5095951;28;20444;-77
2021/03/03 10:50:56;;;;;;;24.07;14.20;;;11.50;99.90;;;;;;5093466;28;20432;-78
2021/03/03 10:53:23;;;;;;;26.60;14.30;;;11.60;99.90;;;;;;5088903;28;20453;-78
2021/03/03 10:55:50;;;;;;;24.77;16.10;;;11.80;99.90;;;;;;5078542;28;20466;-78
2021/03/03 10:58:18;;;;;;;22.60;14.90;;;11.90;99.90;;;;;;5081923;28;20471;-77
2021/03/03 11:00:57;;;;;;;23.10;14.27;;;12.00;99.90;;;;;;5081805;28;20408;-77
2021/03/03 11:03:25;;;;;;;24.90;13.97;;;12.00;99.90;;;;;;5082040;28;20419;-78
2021/03/03 11:05:54;;;;;;;23.77;14.23;;;12.10;99.90;;;;;;5082054;28;20405;-78
2021/03/03 11:08:22;;;;;;;20.23;13.37;;;12.10;99.90;;;;;;5081108;28;20411;-78
2021/03/03 11:10:50;;;;;;;20.77;14.30;;;12.20;99.90;;;;;;5078333;28;20389;-78
2021/03/03 11:13:17;;;;;;;25.40;13.93;;;12.10;99.90;;;;;;5078096;28;20453;-78
2021/03/03 11:15:45;;;;;;;20.73;12.87;;;12.20;99.90;;;;;;5076388;28;20413;-78
2021/03/03 11:18:18;;;;;;;19.80;12.67;;;12.30;99.90;;;;;;5080035;28;20393;-77
2021/03/03 11:20:46;;;;;;;20.40;12.03;;;12.50;99.90;;;;;;5090128;28;20397;-78
2021/03/03 11:23:14;;;;;;;18.80;11.63;;;12.60;99.90;;;;;;5090532;28;20417;-79
2021/03/03 11:25:41;;;;;;;19.10;12.13;;;12.70;99.90;;;;;;5088713;28;20936;-78
2021/03/03 11:28:09;;;;;;;19.70;12.33;;;12.80;99.90;;;;;;5080241;28;20446;-78
2021/03/03 11:30:36;;;;;;;21.00;12.40;;;13.00;99.90;;;;;;5079379;28;20414;-78
2021/03/03 11:33:04;;;;;;;22.77;12.80;;;13.00;99.90;;;;;;5079794;28;20451;-77
2021/03/03 11:35:31;;;;;;;19.33;13.00;;;13.10;99.90;;;;;;5082085;28;20418;-79
2021/03/03 11:37:59;;;;;;;21.70;12.13;;;13.20;99.90;;;;;;5081855;28;20389;-79
2021/03/03 11:40:27;;;;;;;20.43;12.40;;;13.20;99.90;;;;;;5087030;28;20426;-78
2021/03/03 11:42:54;;;;;;;21.97;12.20;;;13.20;99.90;;;;;;5091828;28;20422;-77
2021/03/03 11:45:21;;;;;;;16.10;11.40;;;13.20;99.90;;;;;;5088810;28;20435;-78
2021/03/03 11:47:49;;;;;;;26.43;13.63;;;13.10;99.90;;;;;;5087085;28;20433;-78
2021/03/03 11:50:17;;;;;;;19.77;11.90;;;13.20;99.90;;;;;;5084699;28;20513;-78
2021/03/03 11:52:44;;;;;;;16.13;11.50;;;13.30;99.90;;;;;;5076909;28;20954;-78
2021/03/03 11:55:12;;;;;;;16.87;11.40;;;13.40;99.90;;;;;;5077242;28;20436;-78
2021/03/03 11:57:40;;;;;;;15.30;9.33;;;13.60;99.90;;;;;;5075884;28;20439;-77
2021/03/03 12:00:09;;;;;;;15.70;10.40;;;13.70;99.90;;;;;;5077544;28;20424;-78
2021/03/03 12:02:39;;;;;;;15.77;11.50;;;13.70;99.90;;;;;;5077076;28;20752;-79
2021/03/03 12:05:08;;;;;;;15.27;9.23;;;13.60;99.90;;;;;;5077257;28;20921;-78
2021/03/03 12:07:36;;;;;;;16.70;10.50;;;13.60;99.90;;;;;;5077210;28;20763;-77
2021/03/03 12:10:05;;;;;;;18.30;9.47;;;13.70;99.90;;;;;;5077875;28;20864;-78
2021/03/03 12:12:33;;;;;;;18.53;12.20;;;13.70;99.90;;;;;;5080076;28;20469;-78
2021/03/03 12:15:01;;;;;;;17.03;11.33;;;13.70;99.90;;;;;;5086111;28;20435;-77
2021/03/03 12:17:28;;;;;;;17.77;12.80;;;13.70;99.90;;;;;;5085877;28;20461;-78
2021/03/03 12:19:59;;;;;;;21.63;10.73;;;13.80;99.90;;;;;;5080448;28;20431;-78
2021/03/03 12:22:26;;;;;;;15.93;10.77;;;13.90;99.90;;;;;;5076630;28;20389;-78
2021/03/03 12:24:53;;;;;;;19.13;10.17;;;14.00;99.90;;;;;;5075982;28;20465;-77
2021/03/03 12:27:20;;;;;;;17.00;9.80;;;14.20;99.90;;;;;;5076192;28;20459;-79
2021/03/03 12:29:47;;;;;;;10.77;7.67;;;14.30;99.90;;;;;;5075919;28;20436;-78
2021/03/03 12:32:16;;;;;;;13.47;8.80;;;14.40;99.90;;;;;;5074729;28;20454;-78
2021/03/03 12:34:43;;;;;;;21.83;9.60;;;14.50;99.90;;;;;;5075329;28;20413;-78
2021/03/03 12:37:11;;;;;;;16.50;11.53;;;14.60;99.90;;;;;;5075730;28;20421;-77
2021/03/03 12:39:38;;;;;;;14.87;8.47;;;14.60;99.90;;;;;;5074281;28;20425;-77
2021/03/03 12:42:06;;;;;;;18.60;10.13;;;14.60;99.90;;;;;;5074273;28;20451;-77
2021/03/03 12:44:33;;;;;;;16.40;9.63;;;14.70;99.90;;;;;;5074107;28;20976;-78
2021/03/03 12:47:00;;;;;;;16.20;10.97;;;14.80;99.90;;;;;;5074215;28;20400;-78
2021/03/03 12:49:29;;;;;;;14.67;9.30;;;14.60;99.90;;;;;;5074088;28;20528;-78
2021/03/03 12:51:56;;;;;;;17.93;11.37;;;14.70;99.90;;;;;;5080250;28;21077;-78